sensor_id;sensor_type;location;lat;lon;timestamp;temperature;humidity
67890;DHT22;54685;52.082;5.426;2023-05-07T00:01:33;15.50;99.90
67890;DHT22;54685;52.082;5.426;2023-05-07T00:04:00;15.50;99.90
67890;DHT22;54685;52.082;5.426;2023-05-07T00:06:27;15.40;99.90
67890;DHT22;54685;52.082;5.426;2023-05-07T00:08:56;15.40;99.90
67890;DHT22;54685;52.082;5.426;2023-05-07T00:11:25;15.40;99.90
67890;DHT22;54685;52.082;5.426;2023-05-07T00:13:53;15.40;99.90
67890;DHT22;54685;52.082;5.426;2023-05-07T00:16:19;15.40;99.90
67890;DHT22;54685;52.082;5.426;2023-05-07T00:18:46;15.30;99.90
67890;DHT22;54685;52.082;5.426;2023-05-07T00:21:13;15.30;99.90
67890;DHT22;54685;52.082;5.426;2023-05-07T00:23:40;15.30;99.90
67890;DHT22;54685;52.082;5.426;2023-05-07T00:26:07;15.20;99.90
67890;DHT22;54685;52.082;5.426;2023-05-07T00:28:34;15.20;99.90
67890;DHT22;54685;52.082;5.426;2023-05-07T00:31:01;15.10;99.90
67890;DHT22;54685;52.082;5.426;2023-05-07T00:33:28;15.10;99.90
67890;DHT22;54685;52.082;5.426;2023-05-07T00:35:54;15.10;99.90
67890;DHT22;54685;52.082;5.426;2023-05-07T00:38:21;15.10;99.90
67890;DHT22;54685;52.082;5.426;2023-05-07T00:40:48;15.00;99.90
67890;DHT22;54685;52.082;5.426;2023-05-07T00:43:15;15.10;99.90
67890;DHT22;54685;52.082;5.426;2023-05-07T00:45:42;15.00;99.90
67890;DHT22;54685;52.082;5.426;2023-05-07T00:48:10;15.10;99.90
67890;DHT22;54685;52.082;5.426;2023-05-07T00:50:36;15.10;99.90
67890;DHT22;54685;52.082;5.426;2023-05-07T00:53:04;15.00;99.90
67890;DHT22;54685;52.082;5.426;2023-05-07T00:55:31;15.00;99.90
67890;DHT22;54685;52.082;5.426;2023-05-07T00:57:58;15.00;99.90
67890;DHT22;54685;52.082;5.426;2023-05-07T01:00:24;15.00;99.90
67890;DHT22;54685;52.082;5.426;2023-05-07T01:02:51;15.00;99.90
67890;DHT22;54685;52.082;5.426;2023-05-07T01:05:19;15.00;99.90
67890;DHT22;54685;52.082;5.426;2023-05-07T01:07:47;15.00;99.90
67890;DHT22;54685;52.082;5.426;2023-05-07T01:10:15;15.00;99.90
67890;DHT22;54685;52.082;5.426;2023-05-07T01:12:42;15.00;99.90
67890;DHT22;54685;52.082;5.426;2023-05-07T01:15:10;15.00;99.90
67890;DHT22;54685;52.082;5.426;2023-05-07T01:17:41;15.00;99.90
67890;DHT22;54685;52.082;5.426;2023-05-07T01:20:18;14.90;99.90
67890;DHT22;54685;52.082;5.426;2023-05-07T01:22:47;14.90;99.90
67890;DHT22;54685;52.082;5.426;2023-05-07T01:25:14;14.90;99.90
67890;DHT22;54685;52.082;5.426;2023-05-07T01:27:46;14.90;99.90
67890;DHT22;54685;52.082;5.426;2023-05-07T01:30:14;14.90;99.90
67890;DHT22;54685;52.082;5.426;2023-05-07T01:35:26;14.90;99.90
67890;DHT22;54685;52.082;5.426;2023-05-07T01:37:55;14.90;99.90
67890;DHT22;54685;52.082;5.426;2023-05-07T01:40:24;14.80;99.90
67890;DHT22;54685;52.082;5.426;2023-05-07T01:42:51;14.80;99.90
67890;DHT22;54685;52.082;5.426;2023-05-07T01:45:18;14.80;99.90
67890;DHT22;54685;52.082;5.426;2023-05-07T01:47:46;14.80;99.90
67890;DHT22;54685;52.082;5.426;2023-05-07T01:50:14;14.80;99.90
67890;DHT22;54685;52.082;5.426;2023-05-07T01:52:43;14.70;99.90
67890;DHT22;54685;52.082;5.426;2023-05-07T01:55:10;14.70;99.90
67890;DHT22;54685;52.082;5.426;2023-05-07T01:57:37;14.70;99.90
67890;DHT22;54685;52.082;5.426;2023-05-07T02:00:04;14.70;99.90
67890;DHT22;54685;52.082;5.426;2023-05-07T02:02:41;14.60;99.90
67890;DHT22;54685;52.082;5.426;2023-05-07T02:05:18;14.70;99.90
67890;DHT22;54685;52.082;5.426;2023-05-07T02:07:50;14.70;99.90
67890;DHT22;54685;52.082;5.426;2023-05-07T02:10:17;14.70;99.90
67890;DHT22;54685;52.082;5.426;2023-05-07T02:12:44;14.70;99.90
67890;DHT22;54685;52.082;5.426;2023-05-07T02:15:11;14.70;99.90
67890;DHT22;54685;52.082;5.426;2023-05-07T02:18:02;14.70;99.90
67890;DHT22;54685;52.082;5.426;2023-05-07T02:20:30;14.80;99.90
67890;DHT22;54685;52.082;5.426;2023-05-07T02:22:57;14.70;99.90
67890;DHT22;54685;52.082;5.426;2023-05-07T02:25:26;14.70;99.90
67890;DHT22;54685;52.082;5.426;2023-05-07T02:27:53;14.70;99.90
67890;DHT22;54685;52.082;5.426;2023-05-07T02:30:25;14.70;99.90
67890;DHT22;54685;52.082;5.426;2023-05-07T02:32:54;14.80;99.90
67890;DHT22;54685;52.082;5.426;2023-05-07T02:35:21;14.70;99.90
67890;DHT22;54685;52.082;5.426;2023-05-07T02:37:48;14.70;99.90
67890;DHT22;54685;52.082;5.426;2023-05-07T02:40:15;14.70;99.90
67890;DHT22;54685;52.082;5.426;2023-05-07T02:42:42;14.60;99.90
67890;DHT22;54685;52.082;5.426;2023-05-07T02:45:09;14.60;99.90
67890;DHT22;54685;52.082;5.426;2023-05-07T02:47:37;14.60;99.90
67890;DHT22;54685;52.082;5.426;2023-05-07T02:50:05;14.50;99.90
67890;DHT22;54685;52.082;5.426;2023-05-07T02:52:32;14.40;99.90
67890;DHT22;54685;52.082;5.426;2023-05-07T02:54:59;14.40;99.90
67890;DHT22;54685;52.082;5.426;2023-05-07T02:57:26;14.40;99.90
67890;DHT22;54685;52.082;5.426;2023-05-07T02:59:53;14.40;99.90
67890;DHT22;54685;52.082;5.426;2023-05-07T03:02:22;14.40;99.90
67890;DHT22;54685;52.082;5.426;2023-05-07T03:04:49;14.40;99.90
67890;DHT22;54685;52.082;5.426;2023-05-07T03:07:16;14.40;99.90
67890;DHT22;54685;52.082;5.426;2023-05-07T03:09:42;14.40;99.90
67890;DHT22;54685;52.082;5.426;2023-05-07T03:12:09;14.40;99.90
67890;DHT22;54685;52.082;5.426;2023-05-07T03:14:36;14.40;99.90
67890;DHT22;54685;52.082;5.426;2023-05-07T03:17:03;14.40;99.90
67890;DHT22;54685;52.082;5.426;2023-05-07T03:19:30;14.40;99.90
67890;DHT22;54685;52.082;5.426;2023-05-07T03:21:57;14.30;99.90
67890;DHT22;54685;52.082;5.426;2023-05-07T03:24:24;14.30;99.90
67890;DHT22;54685;52.082;5.426;2023-05-07T03:26:51;14.30;99.90
67890;DHT22;54685;52.082;5.426;2023-05-07T03:29:18;14.30;99.90
67890;DHT22;54685;52.082;5.426;2023-05-07T03:31:44;14.30;99.90
67890;DHT22;54685;52.082;5.426;2023-05-07T03:34:11;14.20;99.90
67890;DHT22;54685;52.082;5.426;2023-05-07T03:36:38;14.30;99.90
67890;DHT22;54685;52.082;5.426;2023-05-07T03:39:08;14.20;99.90
67890;DHT22;54685;52.082;5.426;2023-05-07T03:41:38;14.10;99.90
67890;DHT22;54685;52.082;5.426;2023-05-07T03:44:05;14.00;99.90
67890;DHT22;54685;52.082;5.426;2023-05-07T03:46:33;14.00;99.90
67890;DHT22;54685;52.082;5.426;2023-05-07T03:49:00;14.00;99.90
67890;DHT22;54685;52.082;5.426;2023-05-07T03:51:28;14.10;99.90
67890;DHT22;54685;52.082;5.426;2023-05-07T03:53:54;14.10;99.90
67890;DHT22;54685;52.082;5.426;2023-05-07T03:56:24;14.10;99.90
67890;DHT22;54685;52.082;5.426;2023-05-07T03:58:54;14.10;99.90
67890;DHT22;54685;52.082;5.426;2023-05-07T04:01:21;14.00;99.90
67890;DHT22;54685;52.082;5.426;2023-05-07T04:03:48;14.00;99.90
67890;DHT22;54685;52.082;5.426;2023-05-07T04:06:16;14.00;99.90
67890;DHT22;54685;52.082;5.426;2023-05-07T04:08:46;14.10;99.90
67890;DHT22;54685;52.082;5.426;2023-05-07T04:11:13;14.10;99.90
67890;DHT22;54685;52.082;5.426;2023-05-07T04:13:40;14.10;99.90
67890;DHT22;54685;52.082;5.426;2023-05-07T04:16:08;14.10;99.90
67890;DHT22;54685;52.082;5.426;2023-05-07T04:18:37;14.10;99.90
67890;DHT22;54685;52.082;5.426;2023-05-07T04:21:04;14.10;99.90
67890;DHT22;54685;52.082;5.426;2023-05-07T04:23:34;14.10;99.90
67890;DHT22;54685;52.082;5.426;2023-05-07T04:26:04;14.10;99.90
67890;DHT22;54685;52.082;5.426;2023-05-07T04:28:38;14.20;99.90
67890;DHT22;54685;52.082;5.426;2023-05-07T04:31:06;14.20;99.90
67890;DHT22;54685;52.082;5.426;2023-05-07T04:33:35;14.10;99.90
67890;DHT22;54685;52.082;5.426;2023-05-07T04:36:04;14.10;99.90
67890;DHT22;54685;52.082;5.426;2023-05-07T04:38:35;14.10;99.90
67890;DHT22;54685;52.082;5.426;2023-05-07T04:41:04;14.10;99.90
67890;DHT22;54685;52.082;5.426;2023-05-07T04:43:34;14.10;99.90
67890;DHT22;54685;52.082;5.426;2023-05-07T04:46:01;14.10;99.90
67890;DHT22;54685;52.082;5.426;2023-05-07T04:48:29;14.10;99.90
67890;DHT22;54685;52.082;5.426;2023-05-07T04:50:57;14.10;99.90
67890;DHT22;54685;52.082;5.426;2023-05-07T04:53:24;14.10;99.90
67890;DHT22;54685;52.082;5.426;2023-05-07T04:55:56;14.00;99.90
67890;DHT22;54685;52.082;5.426;2023-05-07T04:58:27;14.10;99.90
67890;DHT22;54685;52.082;5.426;2023-05-07T05:00:54;14.10;99.90
67890;DHT22;54685;52.082;5.426;2023-05-07T05:03:21;14.00;99.90
67890;DHT22;54685;52.082;5.426;2023-05-07T05:05:51;14.10;99.90
67890;DHT22;54685;52.082;5.426;2023-05-07T05:08:21;14.10;99.90
67890;DHT22;54685;52.082;5.426;2023-05-07T05:10:48;14.20;99.90
67890;DHT22;54685;52.082;5.426;2023-05-07T05:13:16;14.20;99.90
67890;DHT22;54685;52.082;5.426;2023-05-07T05:15:44;14.20;99.90
67890;DHT22;54685;52.082;5.426;2023-05-07T05:18:12;14.30;99.90
67890;DHT22;54685;52.082;5.426;2023-05-07T05:20:39;14.30;99.90
67890;DHT22;54685;52.082;5.426;2023-05-07T05:23:07;14.30;99.90
67890;DHT22;54685;52.082;5.426;2023-05-07T05:25:35;14.40;99.90
67890;DHT22;54685;52.082;5.426;2023-05-07T05:28:02;14.40;99.90
67890;DHT22;54685;52.082;5.426;2023-05-07T05:30:30;14.40;99.90
67890;DHT22;54685;52.082;5.426;2023-05-07T05:32:57;14.40;99.90
67890;DHT22;54685;52.082;5.426;2023-05-07T05:35:26;14.40;99.90
67890;DHT22;54685;52.082;5.426;2023-05-07T05:37:52;14.50;99.90
67890;DHT22;54685;52.082;5.426;2023-05-07T05:40:19;14.50;99.90
67890;DHT22;54685;52.082;5.426;2023-05-07T05:42:47;14.50;99.90
67890;DHT22;54685;52.082;5.426;2023-05-07T05:45:14;14.50;99.90
67890;DHT22;54685;52.082;5.426;2023-05-07T05:47:43;14.50;99.90
67890;DHT22;54685;52.082;5.426;2023-05-07T05:50:10;14.60;99.90
67890;DHT22;54685;52.082;5.426;2023-05-07T05:52:37;14.60;99.90
67890;DHT22;54685;52.082;5.426;2023-05-07T05:55:04;14.60;99.90
67890;DHT22;54685;52.082;5.426;2023-05-07T05:57:32;14.70;99.90
67890;DHT22;54685;52.082;5.426;2023-05-07T05:59:59;14.70;99.90
67890;DHT22;54685;52.082;5.426;2023-05-07T06:02:26;14.70;99.90
67890;DHT22;54685;52.082;5.426;2023-05-07T06:04:53;14.70;99.90
67890;DHT22;54685;52.082;5.426;2023-05-07T06:07:21;14.70;99.90
67890;DHT22;54685;52.082;5.426;2023-05-07T06:09:49;14.80;99.90
67890;DHT22;54685;52.082;5.426;2023-05-07T06:12:16;14.70;99.90
67890;DHT22;54685;52.082;5.426;2023-05-07T06:14:43;14.80;99.90
67890;DHT22;54685;52.082;5.426;2023-05-07T06:17:10;14.80;99.90
67890;DHT22;54685;52.082;5.426;2023-05-07T06:19:38;14.70;99.90
67890;DHT22;54685;52.082;5.426;2023-05-07T06:22:04;14.80;99.90
67890;DHT22;54685;52.082;5.426;2023-05-07T06:24:33;14.80;99.90
67890;DHT22;54685;52.082;5.426;2023-05-07T06:27:00;14.80;99.90
67890;DHT22;54685;52.082;5.426;2023-05-07T06:29:31;14.80;99.90
67890;DHT22;54685;52.082;5.426;2023-05-07T06:32:12;14.80;99.90
67890;DHT22;54685;52.082;5.426;2023-05-07T06:34:41;14.90;99.90
67890;DHT22;54685;52.082;5.426;2023-05-07T06:37:08;14.90;99.90
67890;DHT22;54685;52.082;5.426;2023-05-07T06:39:57;15.00;99.90
67890;DHT22;54685;52.082;5.426;2023-05-07T06:42:26;15.00;99.90
67890;DHT22;54685;52.082;5.426;2023-05-07T06:44:57;15.00;99.90
67890;DHT22;54685;52.082;5.426;2023-05-07T06:47:25;15.00;99.90
67890;DHT22;54685;52.082;5.426;2023-05-07T06:49:54;15.00;99.90
67890;DHT22;54685;52.082;5.426;2023-05-07T06:52:24;15.00;99.90
67890;DHT22;54685;52.082;5.426;2023-05-07T06:54:53;15.00;99.90
67890;DHT22;54685;52.082;5.426;2023-05-07T06:57:21;15.10;99.90
67890;DHT22;54685;52.082;5.426;2023-05-07T06:59:49;15.10;99.90
67890;DHT22;54685;52.082;5.426;2023-05-07T07:02:16;15.20;99.90
67890;DHT22;54685;52.082;5.426;2023-05-07T07:04:45;15.20;99.90
67890;DHT22;54685;52.082;5.426;2023-05-07T07:07:12;15.30;99.90
67890;DHT22;54685;52.082;5.426;2023-05-07T07:09:41;15.40;99.90
67890;DHT22;54685;52.082;5.426;2023-05-07T07:12:09;15.40;99.90
67890;DHT22;54685;52.082;5.426;2023-05-07T07:14:38;15.50;99.90
67890;DHT22;54685;52.082;5.426;2023-05-07T07:17:05;15.60;99.90
67890;DHT22;54685;52.082;5.426;2023-05-07T07:19:33;15.70;99.90
67890;DHT22;54685;52.082;5.426;2023-05-07T07:22:02;15.70;99.90
67890;DHT22;54685;52.082;5.426;2023-05-07T07:24:29;15.80;99.90
67890;DHT22;54685;52.082;5.426;2023-05-07T07:27:00;15.90;99.90
67890;DHT22;54685;52.082;5.426;2023-05-07T07:29:27;15.90;99.90
67890;DHT22;54685;52.082;5.426;2023-05-07T07:31:55;16.00;99.90
67890;DHT22;54685;52.082;5.426;2023-05-07T07:34:22;16.10;99.90
67890;DHT22;54685;52.082;5.426;2023-05-07T07:36:49;16.20;99.90
67890;DHT22;54685;52.082;5.426;2023-05-07T07:39:18;16.30;99.90
67890;DHT22;54685;52.082;5.426;2023-05-07T07:41:47;16.40;99.90
67890;DHT22;54685;52.082;5.426;2023-05-07T07:44:15;16.40;99.90
67890;DHT22;54685;52.082;5.426;2023-05-07T07:46:47;16.50;99.90
67890;DHT22;54685;52.082;5.426;2023-05-07T07:49:14;16.60;99.90
67890;DHT22;54685;52.082;5.426;2023-05-07T07:51:43;16.80;99.90
67890;DHT22;54685;52.082;5.426;2023-05-07T07:54:11;16.90;99.90
67890;DHT22;54685;52.082;5.426;2023-05-07T07:56:39;17.00;99.90
67890;DHT22;54685;52.082;5.426;2023-05-07T07:59:08;17.00;99.90
67890;DHT22;54685;52.082;5.426;2023-05-07T08:01:37;17.20;99.90
67890;DHT22;54685;52.082;5.426;2023-05-07T08:04:05;17.30;99.90
67890;DHT22;54685;52.082;5.426;2023-05-07T08:06:36;17.30;99.90
67890;DHT22;54685;52.082;5.426;2023-05-07T08:09:03;17.30;99.90
67890;DHT22;54685;52.082;5.426;2023-05-07T08:11:30;17.30;99.90
67890;DHT22;54685;52.082;5.426;2023-05-07T08:13:58;17.30;99.90
67890;DHT22;54685;52.082;5.426;2023-05-07T08:16:24;17.20;99.90
67890;DHT22;54685;52.082;5.426;2023-05-07T08:18:52;17.10;99.90
67890;DHT22;54685;52.082;5.426;2023-05-07T08:21:19;17.10;99.90
67890;DHT22;54685;52.082;5.426;2023-05-07T08:23:47;17.00;99.90
67890;DHT22;54685;52.082;5.426;2023-05-07T08:26:14;16.90;99.90
67890;DHT22;54685;52.082;5.426;2023-05-07T08:28:43;16.80;99.90
67890;DHT22;54685;52.082;5.426;2023-05-07T08:31:10;16.80;99.90
67890;DHT22;54685;52.082;5.426;2023-05-07T08:33:39;16.70;99.90
67890;DHT22;54685;52.082;5.426;2023-05-07T08:36:06;16.80;99.90
67890;DHT22;54685;52.082;5.426;2023-05-07T08:38:34;16.80;99.90
67890;DHT22;54685;52.082;5.426;2023-05-07T08:41:01;16.70;99.90
67890;DHT22;54685;52.082;5.426;2023-05-07T08:43:32;16.70;99.90
67890;DHT22;54685;52.082;5.426;2023-05-07T08:46:01;16.60;99.90
67890;DHT22;54685;52.082;5.426;2023-05-07T08:48:32;16.60;99.90
67890;DHT22;54685;52.082;5.426;2023-05-07T08:51:05;16.60;99.90
67890;DHT22;54685;52.082;5.426;2023-05-07T08:53:33;16.60;99.90
67890;DHT22;54685;52.082;5.426;2023-05-07T08:56:00;16.60;99.90
67890;DHT22;54685;52.082;5.426;2023-05-07T08:58:29;16.60;99.90
67890;DHT22;54685;52.082;5.426;2023-05-07T09:00:56;16.60;99.90
67890;DHT22;54685;52.082;5.426;2023-05-07T09:03:24;16.50;99.90
67890;DHT22;54685;52.082;5.426;2023-05-07T09:05:53;16.50;99.90
67890;DHT22;54685;52.082;5.426;2023-05-07T09:08:25;16.50;99.90
67890;DHT22;54685;52.082;5.426;2023-05-07T09:10:53;16.50;99.90
67890;DHT22;54685;52.082;5.426;2023-05-07T09:13:22;16.50;99.90
67890;DHT22;54685;52.082;5.426;2023-05-07T09:15:49;16.50;99.90
67890;DHT22;54685;52.082;5.426;2023-05-07T09:18:16;16.50;99.90
67890;DHT22;54685;52.082;5.426;2023-05-07T09:20:46;16.50;99.90
67890;DHT22;54685;52.082;5.426;2023-05-07T09:23:14;16.60;99.90
67890;DHT22;54685;52.082;5.426;2023-05-07T09:25:43;16.60;99.90
67890;DHT22;54685;52.082;5.426;2023-05-07T09:28:20;16.60;99.90
67890;DHT22;54685;52.082;5.426;2023-05-07T09:30:47;16.70;99.90
67890;DHT22;54685;52.082;5.426;2023-05-07T09:33:15;16.70;99.90
67890;DHT22;54685;52.082;5.426;2023-05-07T09:35:50;16.80;99.90
67890;DHT22;54685;52.082;5.426;2023-05-07T09:38:22;16.90;99.90
67890;DHT22;54685;52.082;5.426;2023-05-07T09:41:12;16.90;99.90
67890;DHT22;54685;52.082;5.426;2023-05-07T09:43:54;17.00;99.90
67890;DHT22;54685;52.082;5.426;2023-05-07T09:46:27;17.20;99.90
67890;DHT22;54685;52.082;5.426;2023-05-07T09:48:58;17.30;99.90
67890;DHT22;54685;52.082;5.426;2023-05-07T09:51:34;17.40;99.90
67890;DHT22;54685;52.082;5.426;2023-05-07T09:54:05;17.40;99.90
67890;DHT22;54685;52.082;5.426;2023-05-07T09:56:36;17.60;99.90
67890;DHT22;54685;52.082;5.426;2023-05-07T09:59:05;17.60;99.90
67890;DHT22;54685;52.082;5.426;2023-05-07T10:01:36;17.60;99.90
67890;DHT22;54685;52.082;5.426;2023-05-07T10:04:03;17.60;99.90
67890;DHT22;54685;52.082;5.426;2023-05-07T10:06:32;17.70;99.90
67890;DHT22;54685;52.082;5.426;2023-05-07T10:08:59;17.70;99.90
67890;DHT22;54685;52.082;5.426;2023-05-07T10:11:28;17.80;99.90
67890;DHT22;54685;52.082;5.426;2023-05-07T10:13:55;17.80;99.90
67890;DHT22;54685;52.082;5.426;2023-05-07T10:16:23;17.80;99.90
67890;DHT22;54685;52.082;5.426;2023-05-07T10:18:51;17.90;99.90
67890;DHT22;54685;52.082;5.426;2023-05-07T10:21:23;17.90;99.90
67890;DHT22;54685;52.082;5.426;2023-05-07T10:24:05;18.00;99.90
67890;DHT22;54685;52.082;5.426;2023-05-07T10:26:36;18.00;99.90
67890;DHT22;54685;52.082;5.426;2023-05-07T10:29:14;18.10;99.90
67890;DHT22;54685;52.082;5.426;2023-05-07T10:31:48;18.20;99.90
67890;DHT22;54685;52.082;5.426;2023-05-07T10:34:32;18.30;99.90
67890;DHT22;54685;52.082;5.426;2023-05-07T10:37:08;18.40;99.90
67890;DHT22;54685;52.082;5.426;2023-05-07T10:39:37;18.50;99.90
67890;DHT22;54685;52.082;5.426;2023-05-07T10:42:14;18.70;99.90
67890;DHT22;54685;52.082;5.426;2023-05-07T10:44:46;18.80;99.90
67890;DHT22;54685;52.082;5.426;2023-05-07T10:47:21;18.90;99.90
67890;DHT22;54685;52.082;5.426;2023-05-07T10:50:20;19.10;99.90
67890;DHT22;54685;52.082;5.426;2023-05-07T10:52:40;19.40;99.90
67890;DHT22;54685;52.082;5.426;2023-05-07T11:01:10;20.80;99.90
67890;DHT22;54685;52.082;5.426;2023-05-07T11:04:12;21.10;99.90
67890;DHT22;54685;52.082;5.426;2023-05-07T11:06:40;21.10;99.90
67890;DHT22;54685;52.082;5.426;2023-05-07T11:09:10;21.00;99.90
67890;DHT22;54685;52.082;5.426;2023-05-07T11:11:49;21.20;99.90
67890;DHT22;54685;52.082;5.426;2023-05-07T11:14:43;21.20;99.90
67890;DHT22;54685;52.082;5.426;2023-05-07T11:17:14;21.00;99.90
67890;DHT22;54685;52.082;5.426;2023-05-07T11:19:55;20.90;99.90
67890;DHT22;54685;52.082;5.426;2023-05-07T11:25:27;21.20;99.90
67890;DHT22;54685;52.082;5.426;2023-05-07T11:28:07;21.40;99.90
67890;DHT22;54685;52.082;5.426;2023-05-07T11:30:42;21.50;99.90
67890;DHT22;54685;52.082;5.426;2023-05-07T11:33:12;21.80;99.90
67890;DHT22;54685;52.082;5.426;2023-05-07T11:35:44;21.90;99.90
67890;DHT22;54685;52.082;5.426;2023-05-07T11:38:13;21.90;99.90
67890;DHT22;54685;52.082;5.426;2023-05-07T11:40:58;21.80;99.90
67890;DHT22;54685;52.082;5.426;2023-05-07T11:43:27;21.80;99.90
67890;DHT22;54685;52.082;5.426;2023-05-07T11:45:54;21.70;99.90
67890;DHT22;54685;52.082;5.426;2023-05-07T11:48:21;21.60;99.90
67890;DHT22;54685;52.082;5.426;2023-05-07T11:50:59;21.70;99.90
67890;DHT22;54685;52.082;5.426;2023-05-07T11:53:27;21.70;99.90
67890;DHT22;54685;52.082;5.426;2023-05-07T11:55:57;21.60;99.90
67890;DHT22;54685;52.082;5.426;2023-05-07T11:58:24;21.50;99.90
67890;DHT22;54685;52.082;5.426;2023-05-07T12:00:54;21.50;99.90
67890;DHT22;54685;52.082;5.426;2023-05-07T12:03:21;21.50;99.90
67890;DHT22;54685;52.082;5.426;2023-05-07T12:05:48;21.60;99.90
67890;DHT22;54685;52.082;5.426;2023-05-07T12:08:22;21.80;99.90
67890;DHT22;54685;52.082;5.426;2023-05-07T12:10:50;22.10;99.90
67890;DHT22;54685;52.082;5.426;2023-05-07T12:13:21;22.40;99.90
67890;DHT22;54685;52.082;5.426;2023-05-07T12:15:56;22.40;99.90
67890;DHT22;54685;52.082;5.426;2023-05-07T12:18:23;22.50;99.90
67890;DHT22;54685;52.082;5.426;2023-05-07T12:20:50;22.50;99.90
67890;DHT22;54685;52.082;5.426;2023-05-07T12:23:18;22.50;99.90
67890;DHT22;54685;52.082;5.426;2023-05-07T12:25:46;22.70;99.90
67890;DHT22;54685;52.082;5.426;2023-05-07T12:28:17;22.70;99.90
67890;DHT22;54685;52.082;5.426;2023-05-07T12:30:49;22.90;99.90
67890;DHT22;54685;52.082;5.426;2023-05-07T12:33:23;23.00;99.90
67890;DHT22;54685;52.082;5.426;2023-05-07T12:35:50;23.20;93.20
67890;DHT22;54685;52.082;5.426;2023-05-07T12:38:17;23.30;97.10
67890;DHT22;54685;52.082;5.426;2023-05-07T12:40:48;23.50;98.70
67890;DHT22;54685;52.082;5.426;2023-05-07T12:43:24;24.00;99.00
67890;DHT22;54685;52.082;5.426;2023-05-07T12:45:54;24.20;96.60
67890;DHT22;54685;52.082;5.426;2023-05-07T12:48:22;24.50;91.20
67890;DHT22;54685;52.082;5.426;2023-05-07T12:50:54;24.50;90.60
67890;DHT22;54685;52.082;5.426;2023-05-07T12:53:23;24.50;90.60
67890;DHT22;54685;52.082;5.426;2023-05-07T12:55:57;24.70;92.60
67890;DHT22;54685;52.082;5.426;2023-05-07T12:58:33;24.40;84.50
67890;DHT22;54685;52.082;5.426;2023-05-07T13:01:05;24.40;86.80
67890;DHT22;54685;52.082;5.426;2023-05-07T13:03:33;24.40;91.30
67890;DHT22;54685;52.082;5.426;2023-05-07T13:06:07;24.10;88.30
67890;DHT22;54685;52.082;5.426;2023-05-07T13:08:37;24.10;92.80
67890;DHT22;54685;52.082;5.426;2023-05-07T13:11:08;23.90;91.00
67890;DHT22;54685;52.082;5.426;2023-05-07T13:13:36;23.80;92.80
67890;DHT22;54685;52.082;5.426;2023-05-07T13:16:05;23.60;94.10
67890;DHT22;54685;52.082;5.426;2023-05-07T13:18:33;23.40;93.30
67890;DHT22;54685;52.082;5.426;2023-05-07T13:21:01;23.30;94.70
67890;DHT22;54685;52.082;5.426;2023-05-07T13:23:28;23.00;93.60
67890;DHT22;54685;52.082;5.426;2023-05-07T13:25:55;23.00;95.30
67890;DHT22;54685;52.082;5.426;2023-05-07T13:28:24;22.90;94.80
67890;DHT22;54685;52.082;5.426;2023-05-07T13:30:51;22.90;96.10
67890;DHT22;54685;52.082;5.426;2023-05-07T13:33:20;22.70;98.00
67890;DHT22;54685;52.082;5.426;2023-05-07T13:35:47;22.60;99.50
67890;DHT22;54685;52.082;5.426;2023-05-07T13:38:14;22.40;99.90
67890;DHT22;54685;52.082;5.426;2023-05-07T13:40:42;22.30;99.90
67890;DHT22;54685;52.082;5.426;2023-05-07T13:43:09;22.20;99.90
67890;DHT22;54685;52.082;5.426;2023-05-07T13:45:37;22.20;99.90
67890;DHT22;54685;52.082;5.426;2023-05-07T13:48:04;22.00;99.90
67890;DHT22;54685;52.082;5.426;2023-05-07T13:50:31;21.90;99.90
67890;DHT22;54685;52.082;5.426;2023-05-07T13:52:58;22.00;99.90
67890;DHT22;54685;52.082;5.426;2023-05-07T13:55:25;22.20;99.90
67890;DHT22;54685;52.082;5.426;2023-05-07T13:57:56;22.20;99.90
67890;DHT22;54685;52.082;5.426;2023-05-07T14:00:25;22.30;99.90
67890;DHT22;54685;52.082;5.426;2023-05-07T14:02:53;22.20;99.90
67890;DHT22;54685;52.082;5.426;2023-05-07T14:05:21;22.10;99.90
67890;DHT22;54685;52.082;5.426;2023-05-07T14:07:52;22.00;99.90
67890;DHT22;54685;52.082;5.426;2023-05-07T14:10:19;22.00;99.90
67890;DHT22;54685;52.082;5.426;2023-05-07T14:12:47;22.10;99.90
67890;DHT22;54685;52.082;5.426;2023-05-07T14:15:15;22.10;99.90
67890;DHT22;54685;52.082;5.426;2023-05-07T14:17:43;22.10;99.90
67890;DHT22;54685;52.082;5.426;2023-05-07T14:20:11;22.20;99.90
67890;DHT22;54685;52.082;5.426;2023-05-07T14:22:39;22.10;99.90
67890;DHT22;54685;52.082;5.426;2023-05-07T14:25:06;22.10;99.90
67890;DHT22;54685;52.082;5.426;2023-05-07T14:27:34;22.20;99.90
67890;DHT22;54685;52.082;5.426;2023-05-07T14:30:00;22.20;99.90
67890;DHT22;54685;52.082;5.426;2023-05-07T14:32:27;22.20;99.90
67890;DHT22;54685;52.082;5.426;2023-05-07T14:34:54;22.10;99.90
67890;DHT22;54685;52.082;5.426;2023-05-07T14:37:21;22.10;99.90
67890;DHT22;54685;52.082;5.426;2023-05-07T14:39:48;22.10;99.90
67890;DHT22;54685;52.082;5.426;2023-05-07T14:42:17;22.10;99.90
67890;DHT22;54685;52.082;5.426;2023-05-07T14:44:45;22.00;99.90
67890;DHT22;54685;52.082;5.426;2023-05-07T14:47:13;22.10;99.90
67890;DHT22;54685;52.082;5.426;2023-05-07T14:49:41;22.10;99.90
67890;DHT22;54685;52.082;5.426;2023-05-07T14:52:08;22.00;99.90
67890;DHT22;54685;52.082;5.426;2023-05-07T14:54:37;22.00;99.90
67890;DHT22;54685;52.082;5.426;2023-05-07T14:57:07;22.00;99.90
67890;DHT22;54685;52.082;5.426;2023-05-07T14:59:35;21.90;99.90
67890;DHT22;54685;52.082;5.426;2023-05-07T15:02:01;21.80;99.90
67890;DHT22;54685;52.082;5.426;2023-05-07T15:04:33;21.80;99.90
67890;DHT22;54685;52.082;5.426;2023-05-07T15:07:00;21.70;99.90
67890;DHT22;54685;52.082;5.426;2023-05-07T15:09:26;21.60;99.90
67890;DHT22;54685;52.082;5.426;2023-05-07T15:11:53;21.50;99.90
67890;DHT22;54685;52.082;5.426;2023-05-07T15:14:20;21.40;99.90
67890;DHT22;54685;52.082;5.426;2023-05-07T15:16:49;21.30;99.90
67890;DHT22;54685;52.082;5.426;2023-05-07T15:19:18;21.00;99.90
67890;DHT22;54685;52.082;5.426;2023-05-07T15:21:52;21.00;99.90
67890;DHT22;54685;52.082;5.426;2023-05-07T15:24:19;21.00;99.90
67890;DHT22;54685;52.082;5.426;2023-05-07T15:26:46;20.90;99.90
67890;DHT22;54685;52.082;5.426;2023-05-07T15:29:15;20.90;99.90
67890;DHT22;54685;52.082;5.426;2023-05-07T15:31:42;20.90;99.90
67890;DHT22;54685;52.082;5.426;2023-05-07T15:34:12;20.90;99.90
67890;DHT22;54685;52.082;5.426;2023-05-07T15:36:41;20.80;99.90
67890;DHT22;54685;52.082;5.426;2023-05-07T15:39:08;20.90;99.90
67890;DHT22;54685;52.082;5.426;2023-05-07T15:41:36;20.70;99.90
67890;DHT22;54685;52.082;5.426;2023-05-07T15:44:04;20.40;99.90
67890;DHT22;54685;52.082;5.426;2023-05-07T15:46:31;20.20;99.90
67890;DHT22;54685;52.082;5.426;2023-05-07T15:49:01;19.90;99.90
67890;DHT22;54685;52.082;5.426;2023-05-07T15:51:34;19.50;99.90
67890;DHT22;54685;52.082;5.426;2023-05-07T15:54:01;19.00;99.90